sensor_id;sensor_type;location;lat;lon;timestamp;pressure;altitude;pressure_sealevel;temperature
76713;BMP280;65640;43.154;25.658;2023-04-03T00:00:23;100064.75;;;8.49
76713;BMP280;65640;43.154;25.658;2023-04-03T00:02:48;100065.78;;;8.42
76713;BMP280;65640;43.154;25.658;2023-04-03T00:05:13;100067.88;;;8.45
76713;BMP280;65640;43.154;25.658;2023-04-03T00:07:39;100060.06;;;8.35
76713;BMP280;65640;43.154;25.658;2023-04-03T00:10:05;100061.63;;;8.26
76713;BMP280;65640;43.154;25.658;2023-04-03T00:12:31;100056.41;;;8.16
76713;BMP280;65640;43.154;25.658;2023-04-03T00:14:56;100051.19;;;8.06
76713;BMP280;65640;43.154;25.658;2023-04-03T00:17:22;100058.22;;;8.11
76713;BMP280;65640;43.154;25.658;2023-04-03T00:19:47;100058.22;;;8.11
76713;BMP280;65640;43.154;25.658;2023-04-03T00:22:13;100051.72;;;8.03
76713;BMP280;65640;43.154;25.658;2023-04-03T00:24:38;100049.63;;;7.95
76713;BMP280;65640;43.154;25.658;2023-04-03T00:27:03;100053.78;;;8.01
76713;BMP280;65640;43.154;25.658;2023-04-03T00:29:29;100045.47;;;7.99
76713;BMP280;65640;43.154;25.658;2023-04-03T00:31:55;100051.44;;;7.99
76713;BMP280;65640;43.154;25.658;2023-04-03T00:34:20;100049.63;;;7.90
76713;BMP280;65640;43.154;25.658;2023-04-03T00:36:46;100050.41;;;7.85
76713;BMP280;65640;43.154;25.658;2023-04-03T00:39:11;100054.31;;;7.88
76713;BMP280;65640;43.154;25.658;2023-04-03T00:41:37;100050.91;;;7.82
76713;BMP280;65640;43.154;25.658;2023-04-03T00:44:19;100051.41;;;7.79
76713;BMP280;65640;43.154;25.658;2023-04-03T00:46:45;100052.44;;;7.73
76713;BMP280;65640;43.154;25.658;2023-04-03T00:49:10;100046.19;;;7.79
76713;BMP280;65640;43.154;25.658;2023-04-03T00:51:36;100058.44;;;7.79
76713;BMP280;65640;43.154;25.658;2023-04-03T00:54:05;100049.88;;;7.83
76713;BMP280;65640;43.154;25.658;2023-04-03T00:56:32;100051.13;;;7.60
76713;BMP280;65640;43.154;25.658;2023-04-03T00:59:19;100048.00;;;7.63
76713;BMP280;65640;43.154;25.658;2023-04-03T01:01:48;100054.22;;;7.67
76713;BMP280;65640;43.154;25.658;2023-04-03T01:04:44;100056.81;;;7.57
76713;BMP280;65640;43.154;25.658;2023-04-03T01:07:11;100052.69;;;7.61
76713;BMP280;65640;43.154;25.658;2023-04-03T01:09:38;100051.84;;;7.51
76713;BMP280;65640;43.154;25.658;2023-04-03T01:14:44;100054.69;;;7.44
76713;BMP280;65640;43.154;25.658;2023-04-03T01:17:41;100054.16;;;7.37
76713;BMP280;65640;43.154;25.658;2023-04-03T01:28:03;100055.13;;;7.21
76713;BMP280;65640;43.154;25.658;2023-04-03T01:30:34;100061.91;;;7.22
76713;BMP280;65640;43.154;25.658;2023-04-03T01:33:01;100063.22;;;7.29
76713;BMP280;65640;43.154;25.658;2023-04-03T01:35:26;100064.25;;;7.28
76713;BMP280;65640;43.154;25.658;2023-04-03T01:37:52;100067.63;;;7.24
76713;BMP280;65640;43.154;25.658;2023-04-03T01:40:17;100070.22;;;7.24
76713;BMP280;65640;43.154;25.658;2023-04-03T01:42:43;100076.22;;;7.19
76713;BMP280;65640;43.154;25.658;2023-04-03T01:45:08;100072.53;;;7.15
76713;BMP280;65640;43.154;25.658;2023-04-03T01:47:34;100075.88;;;7.11
76713;BMP280;65640;43.154;25.658;2023-04-03T01:49:59;100080.31;;;7.10
76713;BMP280;65640;43.154;25.658;2023-04-03T01:52:25;100078.47;;;7.11
76713;BMP280;65640;43.154;25.658;2023-04-03T01:54:50;100077.75;;;7.15
76713;BMP280;65640;43.154;25.658;2023-04-03T01:57:16;100071.47;;;7.11
76713;BMP280;65640;43.154;25.658;2023-04-03T01:59:42;100070.09;;;6.99
76713;BMP280;65640;43.154;25.658;2023-04-03T02:02:07;100068.25;;;6.94
76713;BMP280;65640;43.154;25.658;2023-04-03T02:04:33;100084.91;;;6.93
76713;BMP280;65640;43.154;25.658;2023-04-03T02:06:58;100087.69;;;6.86
76713;BMP280;65640;43.154;25.658;2023-04-03T02:09:24;100096.78;;;6.84
76713;BMP280;65640;43.154;25.658;2023-04-03T02:11:49;100092.66;;;6.88
76713;BMP280;65640;43.154;25.658;2023-04-03T02:14:15;100092.34;;;6.84
76713;BMP280;65640;43.154;25.658;2023-04-03T02:16:40;100081.47;;;6.87
76713;BMP280;65640;43.154;25.658;2023-04-03T02:19:06;100091.88;;;6.87
76713;BMP280;65640;43.154;25.658;2023-04-03T02:21:31;100087.38;;;6.78
76713;BMP280;65640;43.154;25.658;2023-04-03T02:23:57;100096.09;;;6.62
76713;BMP280;65640;43.154;25.658;2023-04-03T02:26:22;100094.53;;;6.61
76713;BMP280;65640;43.154;25.658;2023-04-03T02:28:48;100086.44;;;6.57
76713;BMP280;65640;43.154;25.658;2023-04-03T02:31:13;100088.28;;;6.62
76713;BMP280;65640;43.154;25.658;2023-04-03T02:33:39;100084.09;;;6.56
76713;BMP280;65640;43.154;25.658;2023-04-03T02:36:05;100073.03;;;6.38
76713;BMP280;65640;43.154;25.658;2023-04-03T02:38:31;100077.44;;;6.38
76713;BMP280;65640;43.154;25.658;2023-04-03T02:41:08;100077.13;;;6.34
76713;BMP280;65640;43.154;25.658;2023-04-03T02:43:34;100081.13;;;6.42
76713;BMP280;65640;43.154;25.658;2023-04-03T02:46:00;100078.53;;;6.42
76713;BMP280;65640;43.154;25.658;2023-04-03T02:48:26;100075.97;;;6.47
76713;BMP280;65640;43.154;25.658;2023-04-03T02:50:51;100078.56;;;6.47
76713;BMP280;65640;43.154;25.658;2023-04-03T02:53:18;100081.38;;;6.40
76713;BMP280;65640;43.154;25.658;2023-04-03T02:55:44;100085.53;;;6.41
76713;BMP280;65640;43.154;25.658;2023-04-03T02:58:09;100084.75;;;6.41
76713;BMP280;65640;43.154;25.658;2023-04-03T03:00:35;100090.97;;;6.40
76713;BMP280;65640;43.154;25.658;2023-04-03T03:03:00;100092.84;;;6.44
76713;BMP280;65640;43.154;25.658;2023-04-03T03:05:27;100097.75;;;6.41
76713;BMP280;65640;43.154;25.658;2023-04-03T03:07:52;100093.75;;;6.33
76713;BMP280;65640;43.154;25.658;2023-04-03T03:10:18;100098.41;;;6.26
76713;BMP280;65640;43.154;25.658;2023-04-03T03:12:44;100094.25;;;6.25
76713;BMP280;65640;43.154;25.658;2023-04-03T03:15:10;100085.59;;;6.20
76713;BMP280;65640;43.154;25.658;2023-04-03T03:17:35;100102.16;;;6.13
76713;BMP280;65640;43.154;25.658;2023-04-03T03:20:02;100103.22;;;6.18
76713;BMP280;65640;43.154;25.658;2023-04-03T03:22:28;100102.75;;;6.21
76713;BMP280;65640;43.154;25.658;2023-04-03T03:24:53;100099.03;;;6.11
76713;BMP280;65640;43.154;25.658;2023-04-03T03:27:20;100093.78;;;6.06
76713;BMP280;65640;43.154;25.658;2023-04-03T03:29:46;100106.66;;;5.96
76713;BMP280;65640;43.154;25.658;2023-04-03T03:32:11;100098.56;;;5.93
76713;BMP280;65640;43.154;25.658;2023-04-03T03:34:37;100101.38;;;5.86
76713;BMP280;65640;43.154;25.658;2023-04-03T03:37:02;100101.31;;;5.81
76713;BMP280;65640;43.154;25.658;2023-04-03T03:39:28;100106.03;;;5.89
76713;BMP280;65640;43.154;25.658;2023-04-03T03:41:53;100101.16;;;5.93
76713;BMP280;65640;43.154;25.658;2023-04-03T03:44:19;100095.72;;;5.94
76713;BMP280;65640;43.154;25.658;2023-04-03T03:46:45;100087.16;;;5.94
76713;BMP280;65640;43.154;25.658;2023-04-03T03:49:10;100092.53;;;5.87
76713;BMP280;65640;43.154;25.658;2023-04-03T03:51:37;100085.00;;;5.86
76713;BMP280;65640;43.154;25.658;2023-04-03T03:54:03;100091.00;;;5.86
76713;BMP280;65640;43.154;25.658;2023-04-03T03:56:29;100086.59;;;5.87
76713;BMP280;65640;43.154;25.658;2023-04-03T03:58:54;100079.66;;;5.75
76713;BMP280;65640;43.154;25.658;2023-04-03T04:01:22;100076.84;;;5.77
76713;BMP280;65640;43.154;25.658;2023-04-03T04:03:47;100081.09;;;5.83
76713;BMP280;65640;43.154;25.658;2023-04-03T04:06:13;100065.97;;;5.80
76713;BMP280;65640;43.154;25.658;2023-04-03T04:08:38;100072.81;;;5.86
76713;BMP280;65640;43.154;25.658;2023-04-03T04:11:04;100073.06;;;5.85
76713;BMP280;65640;43.154;25.658;2023-04-03T04:13:29;100077.16;;;5.81
76713;BMP280;65640;43.154;25.658;2023-04-03T04:15:54;100073.84;;;5.85
76713;BMP280;65640;43.154;25.658;2023-04-03T04:18:20;100083.13;;;5.81
76713;BMP280;65640;43.154;25.658;2023-04-03T04:20:46;100090.44;;;5.84
76713;BMP280;65640;43.154;25.658;2023-04-03T04:23:12;100085.50;;;5.83
76713;BMP280;65640;43.154;25.658;2023-04-03T04:25:37;100086.28;;;5.88
76713;BMP280;65640;43.154;25.658;2023-04-03T04:28:03;100090.22;;;5.86
76713;BMP280;65640;43.154;25.658;2023-04-03T04:30:28;100092.28;;;5.89
76713;BMP280;65640;43.154;25.658;2023-04-03T04:32:53;100088.00;;;5.99
76713;BMP280;65640;43.154;25.658;2023-04-03T04:35:19;100104.63;;;5.98
76713;BMP280;65640;43.154;25.658;2023-04-03T04:37:44;100090.28;;;5.96
76713;BMP280;65640;43.154;25.658;2023-04-03T04:40:10;100097.41;;;6.05
76713;BMP280;65640;43.154;25.658;2023-04-03T04:42:36;100098.81;;;6.18
76713;BMP280;65640;43.154;25.658;2023-04-03T04:45:01;100089.28;;;6.24
76713;BMP280;65640;43.154;25.658;2023-04-03T04:47:28;100091.88;;;6.24
76713;BMP280;65640;43.154;25.658;2023-04-03T04:49:53;100092.47;;;6.31
76713;BMP280;65640;43.154;25.658;2023-04-03T04:52:19;100089.56;;;6.54
76713;BMP280;65640;43.154;25.658;2023-04-03T04:54:45;100097.00;;;6.77
76713;BMP280;65640;43.154;25.658;2023-04-03T04:57:10;100107.28;;;6.94
76713;BMP280;65640;43.154;25.658;2023-04-03T04:59:36;100111.59;;;7.20
76713;BMP280;65640;43.154;25.658;2023-04-03T05:02:01;100115.06;;;7.36
76713;BMP280;65640;43.154;25.658;2023-04-03T05:04:27;100115.31;;;7.35
76713;BMP280;65640;43.154;25.658;2023-04-03T05:06:52;100119.19;;;7.32
76713;BMP280;65640;43.154;25.658;2023-04-03T05:09:17;100117.47;;;7.43
76713;BMP280;65640;43.154;25.658;2023-04-03T05:11:45;100116.41;;;7.44
76713;BMP280;65640;43.154;25.658;2023-04-03T05:14:11;100128.91;;;7.47
76713;BMP280;65640;43.154;25.658;2023-04-03T05:16:36;100138.38;;;7.63
76713;BMP280;65640;43.154;25.658;2023-04-03T05:19:02;100143.41;;;7.85
76713;BMP280;65640;43.154;25.658;2023-04-03T05:21:28;100136.16;;;8.02
76713;BMP280;65640;43.154;25.658;2023-04-03T05:23:58;100137.78;;;8.28
76713;BMP280;65640;43.154;25.658;2023-04-03T05:26:23;100129.72;;;8.35
76713;BMP280;65640;43.154;25.658;2023-04-03T05:28:49;100138.03;;;8.42
76713;BMP280;65640;43.154;25.658;2023-04-03T05:31:14;100143.28;;;8.47
76713;BMP280;65640;43.154;25.658;2023-04-03T05:33:41;100141.44;;;8.58
76713;BMP280;65640;43.154;25.658;2023-04-03T05:36:07;100142.50;;;8.67
76713;BMP280;65640;43.154;25.658;2023-04-03T05:38:32;100144.59;;;8.80
76713;BMP280;65640;43.154;25.658;2023-04-03T05:40:58;100139.88;;;8.87
76713;BMP280;65640;43.154;25.658;2023-04-03T05:43:23;100145.88;;;8.98
76713;BMP280;65640;43.154;25.658;2023-04-03T05:45:50;100146.88;;;9.17
76713;BMP280;65640;43.154;25.658;2023-04-03T05:48:15;100155.44;;;9.33
76713;BMP280;65640;43.154;25.658;2023-04-03T05:50:41;100155.94;;;9.45
76713;BMP280;65640;43.154;25.658;2023-04-03T05:53:19;100159.53;;;9.59
76713;BMP280;65640;43.154;25.658;2023-04-03T05:55:45;100156.78;;;9.84
76713;BMP280;65640;43.154;25.658;2023-04-03T05:58:11;100158.81;;;9.97
76713;BMP280;65640;43.154;25.658;2023-04-03T06:00:36;100156.41;;;10.06
76713;BMP280;65640;43.154;25.658;2023-04-03T06:03:02;100164.50;;;10.10
76713;BMP280;65640;43.154;25.658;2023-04-03T06:05:27;100164.75;;;10.13
76713;BMP280;65640;43.154;25.658;2023-04-03T06:07:53;100169.13;;;10.18
76713;BMP280;65640;43.154;25.658;2023-04-03T06:10:18;100171.16;;;10.31
76713;BMP280;65640;43.154;25.658;2023-04-03T06:12:45;100167.47;;;10.37
76713;BMP280;65640;43.154;25.658;2023-04-03T06:15:11;100161.03;;;10.53
76713;BMP280;65640;43.154;25.658;2023-04-03T06:17:37;100160.63;;;10.70
76713;BMP280;65640;43.154;25.658;2023-04-03T06:20:03;100146.59;;;10.84
76713;BMP280;65640;43.154;25.658;2023-04-03T06:22:29;100141.81;;;10.92
76713;BMP280;65640;43.154;25.658;2023-04-03T06:24:56;100144.91;;;10.99
76713;BMP280;65640;43.154;25.658;2023-04-03T06:27:21;100146.28;;;11.15
76713;BMP280;65640;43.154;25.658;2023-04-03T06:29:47;100148.81;;;11.25
76713;BMP280;65640;43.154;25.658;2023-04-03T06:32:13;100152.53;;;11.43
76713;BMP280;65640;43.154;25.658;2023-04-03T06:34:39;100154.47;;;11.56
76713;BMP280;65640;43.154;25.658;2023-04-03T06:37:04;100169.78;;;11.67
76713;BMP280;65640;43.154;25.658;2023-04-03T06:39:30;100170.69;;;11.77
76713;BMP280;65640;43.154;25.658;2023-04-03T06:41:55;100170.00;;;11.90
76713;BMP280;65640;43.154;25.658;2023-04-03T06:44:21;100165.53;;;12.09
76713;BMP280;65640;43.154;25.658;2023-04-03T06:46:46;100167.84;;;12.10
76713;BMP280;65640;43.154;25.658;2023-04-03T06:49:12;100169.88;;;12.32
76713;BMP280;65640;43.154;25.658;2023-04-03T06:51:37;100177.50;;;12.47
76713;BMP280;65640;43.154;25.658;2023-04-03T06:54:04;100178.94;;;12.59
76713;BMP280;65640;43.154;25.658;2023-04-03T06:56:31;100173.88;;;12.62
76713;BMP280;65640;43.154;25.658;2023-04-03T06:58:57;100172.53;;;12.78
76713;BMP280;65640;43.154;25.658;2023-04-03T07:01:27;100180.91;;;12.94
76713;BMP280;65640;43.154;25.658;2023-04-03T07:03:53;100181.28;;;13.15
76713;BMP280;65640;43.154;25.658;2023-04-03T07:06:19;100181.31;;;13.28
76713;BMP280;65640;43.154;25.658;2023-04-03T07:08:45;100187.50;;;13.46
76713;BMP280;65640;43.154;25.658;2023-04-03T07:11:11;100191.91;;;13.51
76713;BMP280;65640;43.154;25.658;2023-04-03T07:13:37;100188.66;;;13.54
76713;BMP280;65640;43.154;25.658;2023-04-03T07:16:03;100196.13;;;13.74
76713;BMP280;65640;43.154;25.658;2023-04-03T07:18:31;100192.69;;;13.87
76713;BMP280;65640;43.154;25.658;2023-04-03T07:20:56;100189.50;;;13.99
76713;BMP280;65640;43.154;25.658;2023-04-03T07:23:23;100189.94;;;14.14
76713;BMP280;65640;43.154;25.658;2023-04-03T07:25:50;100193.81;;;14.39
76713;BMP280;65640;43.154;25.658;2023-04-03T07:28:17;100203.75;;;14.73
76713;BMP280;65640;43.154;25.658;2023-04-03T07:33:10;100191.84;;;15.41
76713;BMP280;65640;43.154;25.658;2023-04-03T07:35:35;100181.59;;;15.56
76713;BMP280;65640;43.154;25.658;2023-04-03T07:38:01;100183.19;;;15.75
76713;BMP280;65640;43.154;25.658;2023-04-03T07:40:26;100186.56;;;15.92
76713;BMP280;65640;43.154;25.658;2023-04-03T07:42:52;100181.16;;;15.89
76713;BMP280;65640;43.154;25.658;2023-04-03T07:45:17;100179.56;;;15.96
76713;BMP280;65640;43.154;25.658;2023-04-03T07:47:44;100183.44;;;16.07
76713;BMP280;65640;43.154;25.658;2023-04-03T07:50:09;100174.72;;;16.16
76713;BMP280;65640;43.154;25.658;2023-04-03T07:52:35;100173.75;;;16.29
76713;BMP280;65640;43.154;25.658;2023-04-03T07:55:00;100170.63;;;16.44
76713;BMP280;65640;43.154;25.658;2023-04-03T07:57:26;100175.91;;;16.44
76713;BMP280;65640;43.154;25.658;2023-04-03T07:59:51;100178.56;;;16.35
76713;BMP280;65640;43.154;25.658;2023-04-03T08:02:17;100185.47;;;16.57
76713;BMP280;65640;43.154;25.658;2023-04-03T08:04:42;100184.16;;;16.72
76713;BMP280;65640;43.154;25.658;2023-04-03T08:07:07;100174.66;;;16.71
76713;BMP280;65640;43.154;25.658;2023-04-03T08:09:33;100175.81;;;16.61
76713;BMP280;65640;43.154;25.658;2023-04-03T08:11:58;100178.94;;;16.63
76713;BMP280;65640;43.154;25.658;2023-04-03T08:14:24;100167.97;;;16.73
76713;BMP280;65640;43.154;25.658;2023-04-03T08:16:49;100168.13;;;16.77
76713;BMP280;65640;43.154;25.658;2023-04-03T08:19:16;100172.00;;;16.79
76713;BMP280;65640;43.154;25.658;2023-04-03T08:21:43;100170.78;;;16.97
76713;BMP280;65640;43.154;25.658;2023-04-03T08:24:09;100167.41;;;17.18
76713;BMP280;65640;43.154;25.658;2023-04-03T08:26:35;100162.97;;;17.10
76713;BMP280;65640;43.154;25.658;2023-04-03T08:29:01;100157.09;;;16.75
76713;BMP280;65640;43.154;25.658;2023-04-03T08:31:27;100157.31;;;16.61
76713;BMP280;65640;43.154;25.658;2023-04-03T08:33:53;100149.56;;;16.56
76713;BMP280;65640;43.154;25.658;2023-04-03T08:36:21;100143.28;;;16.69
76713;BMP280;65640;43.154;25.658;2023-04-03T08:38:48;100138.81;;;16.61
76713;BMP280;65640;43.154;25.658;2023-04-03T08:41:14;100135.13;;;16.53
76713;BMP280;65640;43.154;25.658;2023-04-03T08:49:40;100127.38;;;16.78
76713;BMP280;65640;43.154;25.658;2023-04-03T08:52:14;100125.84;;;16.97
76713;BMP280;65640;43.154;25.658;2023-04-03T08:54:55;100120.09;;;17.16
76713;BMP280;65640;43.154;25.658;2023-04-03T08:57:29;100124.94;;;17.14
76713;BMP280;65640;43.154;25.658;2023-04-03T08:59:56;100122.81;;;16.87
76713;BMP280;65640;43.154;25.658;2023-04-03T09:04:52;100117.56;;;16.78
76713;BMP280;65640;43.154;25.658;2023-04-03T09:07:26;100110.09;;;16.51
76713;BMP280;65640;43.154;25.658;2023-04-03T09:09:56;100119.03;;;16.67
76713;BMP280;65640;43.154;25.658;2023-04-03T09:12:28;100124.47;;;16.91
76713;BMP280;65640;43.154;25.658;2023-04-03T09:15:22;100125.16;;;17.30
76713;BMP280;65640;43.154;25.658;2023-04-03T09:18:04;100124.97;;;17.35
76713;BMP280;65640;43.154;25.658;2023-04-03T09:24:05;100119.84;;;16.88
76713;BMP280;65640;43.154;25.658;2023-04-03T09:26:30;100114.25;;;17.11
76713;BMP280;65640;43.154;25.658;2023-04-03T09:29:04;100101.53;;;17.25
76713;BMP280;65640;43.154;25.658;2023-04-03T09:31:37;100110.19;;;17.46
76713;BMP280;65640;43.154;25.658;2023-04-03T09:34:06;100110.84;;;17.43
76713;BMP280;65640;43.154;25.658;2023-04-03T09:36:45;100106.63;;;17.63
76713;BMP280;65640;43.154;25.658;2023-04-03T09:39:17;100106.28;;;17.64
76713;BMP280;65640;43.154;25.658;2023-04-03T09:44:22;100102.00;;;17.72
76713;BMP280;65640;43.154;25.658;2023-04-03T09:46:48;100107.78;;;17.74
76713;BMP280;65640;43.154;25.658;2023-04-03T09:49:14;100097.28;;;17.77
76713;BMP280;65640;43.154;25.658;2023-04-03T09:51:40;100094.72;;;17.69
76713;BMP280;65640;43.154;25.658;2023-04-03T09:54:26;100096.31;;;17.94
76713;BMP280;65640;43.154;25.658;2023-04-03T09:56:53;100089.81;;;17.91
76713;BMP280;65640;43.154;25.658;2023-04-03T09:59:20;100085.88;;;18.22
76713;BMP280;65640;43.154;25.658;2023-04-03T10:02:16;100082.50;;;18.61
76713;BMP280;65640;43.154;25.658;2023-04-03T10:04:46;100086.41;;;18.79
76713;BMP280;65640;43.154;25.658;2023-04-03T10:07:35;100094.38;;;18.79
76713;BMP280;65640;43.154;25.658;2023-04-03T10:10:22;100095.59;;;18.82
76713;BMP280;65640;43.154;25.658;2023-04-03T10:13:11;100097.25;;;18.86
76713;BMP280;65640;43.154;25.658;2023-04-03T10:15:43;100096.97;;;18.64
76713;BMP280;65640;43.154;25.658;2023-04-03T10:18:30;100092.13;;;18.41
76713;BMP280;65640;43.154;25.658;2023-04-03T10:21:03;100082.94;;;18.63
76713;BMP280;65640;43.154;25.658;2023-04-03T10:28:44;100073.56;;;18.41
76713;BMP280;65640;43.154;25.658;2023-04-03T10:31:31;100074.13;;;18.47
76713;BMP280;65640;43.154;25.658;2023-04-03T10:36:50;100061.66;;;18.75
76713;BMP280;65640;43.154;25.658;2023-04-03T10:46:22;100047.91;;;19.72
76713;BMP280;65640;43.154;25.658;2023-04-03T10:48:43;100056.81;;;19.64
76713;BMP280;65640;43.154;25.658;2023-04-03T10:56:47;100042.34;;;19.62
76713;BMP280;65640;43.154;25.658;2023-04-03T10:59:30;100033.94;;;19.44
76713;BMP280;65640;43.154;25.658;2023-04-03T11:02:07;100024.66;;;19.22
76713;BMP280;65640;43.154;25.658;2023-04-03T11:04:36;100025.09;;;19.09
76713;BMP280;65640;43.154;25.658;2023-04-03T11:07:20;100021.44;;;18.85
76713;BMP280;65640;43.154;25.658;2023-04-03T11:09:50;100020.66;;;18.85
76713;BMP280;65640;43.154;25.658;2023-04-03T11:12:44;100008.53;;;19.00
76713;BMP280;65640;43.154;25.658;2023-04-03T11:15:22;100005.53;;;19.01
76713;BMP280;65640;43.154;25.658;2023-04-03T11:17:54;100004.00;;;19.00
76713;BMP280;65640;43.154;25.658;2023-04-03T11:20:32;100006.06;;;18.91
76713;BMP280;65640;43.154;25.658;2023-04-03T11:23:24;99999.88;;;19.03
76713;BMP280;65640;43.154;25.658;2023-04-03T11:25:58;99995.97;;;19.12
76713;BMP280;65640;43.154;25.658;2023-04-03T11:28:24;99990.81;;;19.19
76713;BMP280;65640;43.154;25.658;2023-04-03T11:36:02;99977.84;;;19.30
76713;BMP280;65640;43.154;25.658;2023-04-03T11:38:33;99986.75;;;19.37
76713;BMP280;65640;43.154;25.658;2023-04-03T11:41:03;99980.75;;;19.56
76713;BMP280;65640;43.154;25.658;2023-04-03T11:43:31;99981.78;;;19.67
76713;BMP280;65640;43.154;25.658;2023-04-03T11:46:06;99974.22;;;19.69
76713;BMP280;65640;43.154;25.658;2023-04-03T11:51:01;99975.31;;;19.68
76713;BMP280;65640;43.154;25.658;2023-04-03T11:53:29;99978.16;;;19.75
76713;BMP280;65640;43.154;25.658;2023-04-03T11:55:58;99975.91;;;19.77
76713;BMP280;65640;43.154;25.658;2023-04-03T11:58:35;99970.84;;;19.88
76713;BMP280;65640;43.154;25.658;2023-04-03T12:01:11;99973.25;;;19.77
76713;BMP280;65640;43.154;25.658;2023-04-03T12:04:05;99982.28;;;19.41
76713;BMP280;65640;43.154;25.658;2023-04-03T12:08:57;99976.00;;;19.03
76713;BMP280;65640;43.154;25.658;2023-04-03T12:11:30;99972.13;;;18.84
76713;BMP280;65640;43.154;25.658;2023-04-03T12:21:15;99973.97;;;18.40
76713;BMP280;65640;43.154;25.658;2023-04-03T12:29:02;99967.69;;;18.61
76713;BMP280;65640;43.154;25.658;2023-04-03T12:31:40;99969.91;;;18.59
76713;BMP280;65640;43.154;25.658;2023-04-03T12:37:17;99963.38;;;18.68
76713;BMP280;65640;43.154;25.658;2023-04-03T12:39:50;99965.69;;;18.70
76713;BMP280;65640;43.154;25.658;2023-04-03T12:42:21;99963.84;;;18.58
76713;BMP280;65640;43.154;25.658;2023-04-03T12:45:01;99961.84;;;18.55
76713;BMP280;65640;43.154;25.658;2023-04-03T12:47:36;99959.84;;;18.64
76713;BMP280;65640;43.154;25.658;2023-04-03T12:50:04;99965.50;;;18.63
76713;BMP280;65640;43.154;25.658;2023-04-03T12:54:56;99960.56;;;18.77
76713;BMP280;65640;43.154;25.658;2023-04-03T12:57:26;99963.38;;;18.68
76713;BMP280;65640;43.154;25.658;2023-04-03T12:59:53;99967.59;;;18.57
76713;BMP280;65640;43.154;25.658;2023-04-03T13:02:26;99965.84;;;18.49
76713;BMP280;65640;43.154;25.658;2023-04-03T13:04:55;99960.16;;;18.35
76713;BMP280;65640;43.154;25.658;2023-04-03T13:10:20;99961.41;;;18.13
76713;BMP280;65640;43.154;25.658;2023-04-03T13:15:20;99954.94;;;17.99
76713;BMP280;65640;43.154;25.658;2023-04-03T13:17:48;99944.56;;;17.93
76713;BMP280;65640;43.154;25.658;2023-04-03T13:20:27;99958.91;;;17.92
76713;BMP280;65640;43.154;25.658;2023-04-03T13:23:07;99956.03;;;17.85
76713;BMP280;65640;43.154;25.658;2023-04-03T13:25:36;99959.91;;;17.76
76713;BMP280;65640;43.154;25.658;2023-04-03T13:28:05;99957.63;;;17.74
76713;BMP280;65640;43.154;25.658;2023-04-03T13:30:37;99954.25;;;17.65
76713;BMP280;65640;43.154;25.658;2023-04-03T13:33:19;99956.25;;;17.56
76713;BMP280;65640;43.154;25.658;2023-04-03T13:35:45;99957.25;;;17.39
76713;BMP280;65640;43.154;25.658;2023-04-03T13:40:56;99950.34;;;17.14
76713;BMP280;65640;43.154;25.658;2023-04-03T13:43:27;99956.34;;;16.90
76713;BMP280;65640;43.154;25.658;2023-04-03T13:48:49;99954.56;;;16.62
76713;BMP280;65640;43.154;25.658;2023-04-03T13:51:28;99947.91;;;16.35
76713;BMP280;65640;43.154;25.658;2023-04-03T13:54:00;99942.13;;;16.21
76713;BMP280;65640;43.154;25.658;2023-04-03T13:56:29;99941.66;;;16.19
76713;BMP280;65640;43.154;25.658;2023-04-03T14:01:24;99938.81;;;16.24
76713;BMP280;65640;43.154;25.658;2023-04-03T14:03:59;99941.91;;;16.26
76713;BMP280;65640;43.154;25.658;2023-04-03T14:06:25;99938.19;;;16.27
76713;BMP280;65640;43.154;25.658;2023-04-03T14:08:51;99941.44;;;16.24
76713;BMP280;65640;43.154;25.658;2023-04-03T14:11:21;99938.25;;;16.18
76713;BMP280;65640;43.154;25.658;2023-04-03T14:13:48;99941.22;;;16.17
76713;BMP280;65640;43.154;25.658;2023-04-03T14:16:18;99938.75;;;16.12
76713;BMP280;65640;43.154;25.658;2023-04-03T14:18:45;99939.19;;;16.14
76713;BMP280;65640;43.154;25.658;2023-04-03T14:21:12;99937.16;;;16.19
76713;BMP280;65640;43.154;25.658;2023-04-03T14:23:39;99943.34;;;16.23
76713;BMP280;65640;43.154;25.658;2023-04-03T14:26:19;99937.31;;;16.23
76713;BMP280;65640;43.154;25.658;2023-04-03T14:28:47;99937.94;;;16.20
76713;BMP280;65640;43.154;25.658;2023-04-03T14:31:15;99934.38;;;16.16
76713;BMP280;65640;43.154;25.658;2023-04-03T14:33:41;99932.38;;;16.13
76713;BMP280;65640;43.154;25.658;2023-04-03T14:36:20;99934.97;;;16.00
76713;BMP280;65640;43.154;25.658;2023-04-03T14:38:46;99941.03;;;15.92
76713;BMP280;65640;43.154;25.658;2023-04-03T14:41:13;99948.50;;;15.90
76713;BMP280;65640;43.154;25.658;2023-04-03T14:43:39;99949.16;;;15.79
76713;BMP280;65640;43.154;25.658;2023-04-03T14:46:12;99950.28;;;15.69
76713;BMP280;65640;43.154;25.658;2023-04-03T14:48:38;99951.47;;;15.51
76713;BMP280;65640;43.154;25.658;2023-04-03T14:51:04;99958.16;;;15.40
76713;BMP280;65640;43.154;25.658;2023-04-03T14:53:29;99953.03;;;15.35
76713;BMP280;65640;43.154;25.658;2023-04-03T14:55:56;99947.16;;;15.20
76713;BMP280;65640;43.154;25.658;2023-04-03T14:58:21;99946.88;;;15.13
76713;BMP280;65640;43.154;25.658;2023-04-03T15:00:47;99947.19;;;15.03
76713;BMP280;65640;43.154;25.658;2023-04-03T15:03:15;99943.31;;;14.92
76713;BMP280;65640;43.154;25.658;2023-04-03T15:05:41;99948.91;;;14.91
76713;BMP280;65640;43.154;25.658;2023-04-03T15:08:25;99942.44;;;14.88
76713;BMP280;65640;43.154;25.658;2023-04-03T15:10:51;99950.78;;;14.90
76713;BMP280;65640;43.154;25.658;2023-04-03T15:13:21;99942.28;;;14.85
76713;BMP280;65640;43.154;25.658;2023-04-03T15:15:48;99942.25;;;14.76
76713;BMP280;65640;43.154;25.658;2023-04-03T15:18:18;99944.25;;;14.79
76713;BMP280;65640;43.154;25.658;2023-04-03T15:20:45;99947.81;;;14.74
76713;BMP280;65640;43.154;25.658;2023-04-03T15:23:13;99956.06;;;14.73
76713;BMP280;65640;43.154;25.658;2023-04-03T15:25:41;99954.34;;;14.77
76713;BMP280;65640;43.154;25.658;2023-04-03T15:28:09;99945.81;;;14.80